sensor_id;sensor_type;location;lat;lon;timestamp;P1;durP1;ratioP1;P2;durP2;ratioP2
16600;SDS011;34891;48.164;11.572;2022-11-04T00:01:08;6.22;;;3.00;;
16600;SDS011;34891;48.164;11.572;2022-11-04T00:06:22;6.05;;;2.63;;
16600;SDS011;34891;48.164;11.572;2022-11-04T00:11:25;5.50;;;2.78;;
16600;SDS011;34891;48.164;11.572;2022-11-04T00:16:45;7.63;;;2.58;;
16600;SDS011;34891;48.164;11.572;2022-11-04T00:22:07;7.22;;;2.88;;
16600;SDS011;34891;48.164;11.572;2022-11-04T00:27:27;5.68;;;2.83;;
16600;SDS011;34891;48.164;11.572;2022-11-04T00:32:50;4.03;;;1.95;;
16600;SDS011;34891;48.164;11.572;2022-11-04T00:38:11;4.97;;;2.05;;
16600;SDS011;34891;48.164;11.572;2022-11-04T00:48:16;3.65;;;1.95;;
16600;SDS011;34891;48.164;11.572;2022-11-04T00:53:20;5.28;;;2.25;;
16600;SDS011;34891;48.164;11.572;2022-11-04T01:03:25;3.00;;;1.55;;
16600;SDS011;34891;48.164;11.572;2022-11-04T01:08:29;3.65;;;1.90;;
16600;SDS011;34891;48.164;11.572;2022-11-04T01:18:34;4.60;;;1.77;;
16600;SDS011;34891;48.164;11.572;2022-11-04T01:23:38;4.20;;;1.70;;
16600;SDS011;34891;48.164;11.572;2022-11-04T01:28:41;3.45;;;1.52;;
16600;SDS011;34891;48.164;11.572;2022-11-04T01:33:44;2.05;;;0.85;;
16600;SDS011;34891;48.164;11.572;2022-11-04T01:38:48;4.22;;;1.40;;
16600;SDS011;34891;48.164;11.572;2022-11-04T01:43:52;1.83;;;1.10;;
16600;SDS011;34891;48.164;11.572;2022-11-04T01:48:55;0.73;;;0.50;;
16600;SDS011;34891;48.164;11.572;2022-11-04T01:54:01;1.35;;;0.90;;
16600;SDS011;34891;48.164;11.572;2022-11-04T01:59:05;2.22;;;1.10;;
16600;SDS011;34891;48.164;11.572;2022-11-04T02:04:09;2.45;;;0.88;;
16600;SDS011;34891;48.164;11.572;2022-11-04T02:09:29;1.08;;;0.55;;
16600;SDS011;34891;48.164;11.572;2022-11-04T02:14:32;3.35;;;0.77;;
16600;SDS011;34891;48.164;11.572;2022-11-04T02:19:41;0.90;;;0.50;;
16600;SDS011;34891;48.164;11.572;2022-11-04T02:30:11;1.20;;;0.70;;
16600;SDS011;34891;48.164;11.572;2022-11-04T02:35:16;0.70;;;0.38;;
16600;SDS011;34891;48.164;11.572;2022-11-04T02:40:26;0.40;;;0.30;;
16600;SDS011;34891;48.164;11.572;2022-11-04T02:45:35;1.08;;;0.65;;
16600;SDS011;34891;48.164;11.572;2022-11-04T02:50:40;0.52;;;0.40;;
16600;SDS011;34891;48.164;11.572;2022-11-04T02:55:46;2.13;;;0.90;;
16600;SDS011;34891;48.164;11.572;2022-11-04T03:00:51;1.30;;;0.60;;
16600;SDS011;34891;48.164;11.572;2022-11-04T03:06:05;1.08;;;0.70;;
16600;SDS011;34891;48.164;11.572;2022-11-04T03:11:10;1.52;;;0.60;;
16600;SDS011;34891;48.164;11.572;2022-11-04T03:16:16;0.95;;;0.55;;
16600;SDS011;34891;48.164;11.572;2022-11-04T03:21:19;1.48;;;0.47;;
16600;SDS011;34891;48.164;11.572;2022-11-04T03:26:23;1.27;;;0.57;;
16600;SDS011;34891;48.164;11.572;2022-11-04T03:31:32;0.55;;;0.47;;
16600;SDS011;34891;48.164;11.572;2022-11-04T03:36:37;0.15;;;0.15;;
16600;SDS011;34891;48.164;11.572;2022-11-04T03:41:41;1.40;;;0.35;;
16600;SDS011;34891;48.164;11.572;2022-11-04T03:46:46;0.55;;;0.22;;
16600;SDS011;34891;48.164;11.572;2022-11-04T03:57:01;0.75;;;0.32;;
16600;SDS011;34891;48.164;11.572;2022-11-04T04:02:16;0.52;;;0.50;;
16600;SDS011;34891;48.164;11.572;2022-11-04T04:07:25;1.02;;;0.38;;
16600;SDS011;34891;48.164;11.572;2022-11-04T04:12:31;0.43;;;0.32;;
16600;SDS011;34891;48.164;11.572;2022-11-04T04:17:38;0.43;;;0.32;;
16600;SDS011;34891;48.164;11.572;2022-11-04T04:22:44;0.77;;;0.20;;
16600;SDS011;34891;48.164;11.572;2022-11-04T04:27:52;1.00;;;0.40;;
16600;SDS011;34891;48.164;11.572;2022-11-04T04:32:58;0.50;;;0.35;;
16600;SDS011;34891;48.164;11.572;2022-11-04T04:38:03;0.88;;;0.60;;
16600;SDS011;34891;48.164;11.572;2022-11-04T04:43:25;0.52;;;0.50;;
16600;SDS011;34891;48.164;11.572;2022-11-04T04:48:47;0.28;;;0.20;;
16600;SDS011;34891;48.164;11.572;2022-11-04T04:53:49;1.13;;;0.55;;
16600;SDS011;34891;48.164;11.572;2022-11-04T04:58:52;0.38;;;0.38;;
16600;SDS011;34891;48.164;11.572;2022-11-04T05:03:56;0.25;;;0.25;;
16600;SDS011;34891;48.164;11.572;2022-11-04T05:08:59;0.85;;;0.43;;
16600;SDS011;34891;48.164;11.572;2022-11-04T05:14:02;1.02;;;0.50;;
16600;SDS011;34891;48.164;11.572;2022-11-04T05:19:06;1.87;;;0.33;;
16600;SDS011;34891;48.164;11.572;2022-11-04T05:24:09;0.95;;;0.40;;
16600;SDS011;34891;48.164;11.572;2022-11-04T05:29:12;0.43;;;0.30;;
16600;SDS011;34891;48.164;11.572;2022-11-04T05:34:21;0.90;;;0.32;;
16600;SDS011;34891;48.164;11.572;2022-11-04T05:44:26;1.25;;;0.47;;
16600;SDS011;34891;48.164;11.572;2022-11-04T05:49:30;0.45;;;0.30;;
16600;SDS011;34891;48.164;11.572;2022-11-04T05:54:35;2.90;;;0.73;;
16600;SDS011;34891;48.164;11.572;2022-11-04T05:59:38;0.80;;;0.50;;
16600;SDS011;34891;48.164;11.572;2022-11-04T06:04:42;0.80;;;0.28;;
16600;SDS011;34891;48.164;11.572;2022-11-04T06:09:45;0.35;;;0.22;;
16600;SDS011;34891;48.164;11.572;2022-11-04T06:14:47;0.52;;;0.40;;
16600;SDS011;34891;48.164;11.572;2022-11-04T06:19:51;2.63;;;0.52;;
16600;SDS011;34891;48.164;11.572;2022-11-04T06:24:54;1.10;;;0.50;;
16600;SDS011;34891;48.164;11.572;2022-11-04T06:29:57;1.05;;;0.63;;
16600;SDS011;34891;48.164;11.572;2022-11-04T06:35:01;1.15;;;0.70;;
16600;SDS011;34891;48.164;11.572;2022-11-04T06:40:05;2.45;;;0.80;;
16600;SDS011;34891;48.164;11.572;2022-11-04T06:45:09;1.00;;;0.60;;
16600;SDS011;34891;48.164;11.572;2022-11-04T06:50:13;1.10;;;0.73;;
16600;SDS011;34891;48.164;11.572;2022-11-04T06:55:16;0.70;;;0.57;;
16600;SDS011;34891;48.164;11.572;2022-11-04T07:00:19;2.63;;;0.90;;
16600;SDS011;34891;48.164;11.572;2022-11-04T07:05:23;0.70;;;0.55;;
16600;SDS011;34891;48.164;11.572;2022-11-04T07:10:25;1.40;;;0.70;;
16600;SDS011;34891;48.164;11.572;2022-11-04T07:15:28;2.10;;;0.88;;
16600;SDS011;34891;48.164;11.572;2022-11-04T07:20:34;1.13;;;0.50;;
16600;SDS011;34891;48.164;11.572;2022-11-04T07:25:37;0.55;;;0.35;;
16600;SDS011;34891;48.164;11.572;2022-11-04T07:30:40;2.63;;;0.60;;
16600;SDS011;34891;48.164;11.572;2022-11-04T07:35:44;2.38;;;0.80;;
16600;SDS011;34891;48.164;11.572;2022-11-04T07:45:57;1.90;;;1.00;;
16600;SDS011;34891;48.164;11.572;2022-11-04T07:51:02;1.13;;;0.60;;
16600;SDS011;34891;48.164;11.572;2022-11-04T07:56:07;1.00;;;0.50;;
16600;SDS011;34891;48.164;11.572;2022-11-04T08:01:13;1.83;;;0.70;;
16600;SDS011;34891;48.164;11.572;2022-11-04T08:06:18;2.75;;;1.00;;
16600;SDS011;34891;48.164;11.572;2022-11-04T08:11:22;3.20;;;1.13;;
16600;SDS011;34891;48.164;11.572;2022-11-04T08:16:25;1.73;;;0.90;;
16600;SDS011;34891;48.164;11.572;2022-11-04T08:21:36;2.17;;;0.80;;
16600;SDS011;34891;48.164;11.572;2022-11-04T08:26:39;0.88;;;0.47;;
16600;SDS011;34891;48.164;11.572;2022-11-04T08:31:42;1.85;;;0.70;;
16600;SDS011;34891;48.164;11.572;2022-11-04T08:36:46;0.43;;;0.25;;
16600;SDS011;34891;48.164;11.572;2022-11-04T08:41:52;1.25;;;0.70;;
16600;SDS011;34891;48.164;11.572;2022-11-04T08:46:55;1.77;;;0.80;;
16600;SDS011;34891;48.164;11.572;2022-11-04T08:51:58;1.05;;;0.63;;
16600;SDS011;34891;48.164;11.572;2022-11-04T08:57:03;0.75;;;0.32;;
16600;SDS011;34891;48.164;11.572;2022-11-04T09:02:08;2.50;;;0.70;;
16600;SDS011;34891;48.164;11.572;2022-11-04T09:07:14;1.00;;;0.68;;
16600;SDS011;34891;48.164;11.572;2022-11-04T09:12:17;3.65;;;1.20;;
16600;SDS011;34891;48.164;11.572;2022-11-04T09:17:20;2.55;;;0.60;;
16600;SDS011;34891;48.164;11.572;2022-11-04T09:22:24;1.42;;;0.73;;
16600;SDS011;34891;48.164;11.572;2022-11-04T09:27:27;1.02;;;0.57;;
16600;SDS011;34891;48.164;11.572;2022-11-04T09:32:29;2.88;;;0.88;;
16600;SDS011;34891;48.164;11.572;2022-11-04T09:37:34;1.90;;;0.70;;
16600;SDS011;34891;48.164;11.572;2022-11-04T09:42:40;3.10;;;0.60;;
16600;SDS011;34891;48.164;11.572;2022-11-04T09:47:44;1.08;;;0.80;;
16600;SDS011;34891;48.164;11.572;2022-11-04T09:52:50;2.13;;;1.00;;
16600;SDS011;34891;48.164;11.572;2022-11-04T09:57:56;0.55;;;0.55;;
16600;SDS011;34891;48.164;11.572;2022-11-04T10:03:02;2.47;;;0.70;;
16600;SDS011;34891;48.164;11.572;2022-11-04T10:08:18;1.85;;;0.98;;
16600;SDS011;34891;48.164;11.572;2022-11-04T10:13:26;1.02;;;0.40;;
16600;SDS011;34891;48.164;11.572;2022-11-04T10:18:38;1.80;;;0.90;;
16600;SDS011;34891;48.164;11.572;2022-11-04T10:23:49;0.77;;;0.60;;
16600;SDS011;34891;48.164;11.572;2022-11-04T10:28:56;2.53;;;1.40;;
16600;SDS011;34891;48.164;11.572;2022-11-04T10:34:02;3.03;;;1.20;;
16600;SDS011;34891;48.164;11.572;2022-11-04T10:39:12;2.50;;;0.65;;
16600;SDS011;34891;48.164;11.572;2022-11-04T10:44:19;2.70;;;1.20;;
16600;SDS011;34891;48.164;11.572;2022-11-04T10:49:28;4.30;;;1.20;;
16600;SDS011;34891;48.164;11.572;2022-11-04T10:54:40;3.85;;;1.25;;
16600;SDS011;34891;48.164;11.572;2022-11-04T10:59:49;1.55;;;0.57;;
16600;SDS011;34891;48.164;11.572;2022-11-04T11:04:52;1.77;;;1.05;;
16600;SDS011;34891;48.164;11.572;2022-11-04T11:10:18;0.90;;;0.68;;
16600;SDS011;34891;48.164;11.572;2022-11-04T11:15:26;2.35;;;1.00;;
16600;SDS011;34891;48.164;11.572;2022-11-04T11:20:30;3.95;;;1.70;;
16600;SDS011;34891;48.164;11.572;2022-11-04T11:25:36;2.28;;;1.27;;
16600;SDS011;34891;48.164;11.572;2022-11-04T11:30:53;1.77;;;1.17;;
16600;SDS011;34891;48.164;11.572;2022-11-04T11:35:57;2.20;;;1.20;;
16600;SDS011;34891;48.164;11.572;2022-11-04T11:41:04;3.15;;;1.55;;
16600;SDS011;34891;48.164;11.572;2022-11-04T11:46:25;1.80;;;0.95;;
16600;SDS011;34891;48.164;11.572;2022-11-04T11:51:30;1.80;;;1.35;;
16600;SDS011;34891;48.164;11.572;2022-11-04T12:02:03;1.25;;;0.70;;
16600;SDS011;34891;48.164;11.572;2022-11-04T12:07:17;3.25;;;2.05;;
16600;SDS011;34891;48.164;11.572;2022-11-04T12:12:47;0.73;;;0.45;;
16600;SDS011;34891;48.164;11.572;2022-11-04T12:18:04;2.28;;;0.85;;
16600;SDS011;34891;48.164;11.572;2022-11-04T12:23:11;1.17;;;0.40;;
16600;SDS011;34891;48.164;11.572;2022-11-04T12:28:22;0.45;;;0.38;;
16600;SDS011;34891;48.164;11.572;2022-11-04T12:33:30;1.52;;;0.57;;
16600;SDS011;34891;48.164;11.572;2022-11-04T12:38:41;2.50;;;0.80;;
16600;SDS011;34891;48.164;11.572;2022-11-04T12:43:51;0.77;;;0.60;;
16600;SDS011;34891;48.164;11.572;2022-11-04T12:49:02;1.52;;;0.95;;
16600;SDS011;34891;48.164;11.572;2022-11-04T12:54:13;4.03;;;1.17;;
16600;SDS011;34891;48.164;11.572;2022-11-04T12:59:33;1.23;;;0.80;;
16600;SDS011;34891;48.164;11.572;2022-11-04T13:04:42;1.38;;;0.60;;
16600;SDS011;34891;48.164;11.572;2022-11-04T13:09:50;0.73;;;0.63;;
16600;SDS011;34891;48.164;11.572;2022-11-04T13:14:55;3.60;;;1.30;;
16600;SDS011;34891;48.164;11.572;2022-11-04T13:20:04;1.50;;;0.98;;
16600;SDS011;34891;48.164;11.572;2022-11-04T13:25:11;2.75;;;0.50;;
16600;SDS011;34891;48.164;11.572;2022-11-04T13:30:18;2.92;;;1.10;;
16600;SDS011;34891;48.164;11.572;2022-11-04T13:35:25;4.78;;;0.85;;
16600;SDS011;34891;48.164;11.572;2022-11-04T13:40:33;0.77;;;0.60;;
16600;SDS011;34891;48.164;11.572;2022-11-04T13:45:44;2.22;;;0.95;;
16600;SDS011;34891;48.164;11.572;2022-11-04T13:50:55;2.10;;;0.80;;
16600;SDS011;34891;48.164;11.572;2022-11-04T13:55:58;3.28;;;1.15;;
16600;SDS011;34891;48.164;11.572;2022-11-04T14:01:25;2.33;;;1.30;;
16600;SDS011;34891;48.164;11.572;2022-11-04T14:22:32;3.33;;;1.30;;
16600;SDS011;34891;48.164;11.572;2022-11-04T14:27:37;3.33;;;1.08;;
16600;SDS011;34891;48.164;11.572;2022-11-04T14:32:41;2.90;;;0.90;;
16600;SDS011;34891;48.164;11.572;2022-11-04T14:37:45;5.90;;;0.90;;
16600;SDS011;34891;48.164;11.572;2022-11-04T14:42:56;1.30;;;1.02;;
16600;SDS011;34891;48.164;11.572;2022-11-04T14:48:00;3.10;;;1.30;;
16600;SDS011;34891;48.164;11.572;2022-11-04T14:53:20;0.50;;;0.50;;
16600;SDS011;34891;48.164;11.572;2022-11-04T14:58:25;3.67;;;1.10;;
16600;SDS011;34891;48.164;11.572;2022-11-04T15:03:35;1.08;;;0.40;;
16600;SDS011;34891;48.164;11.572;2022-11-04T15:08:59;1.80;;;0.93;;
16600;SDS011;34891;48.164;11.572;2022-11-04T15:14:03;2.85;;;1.42;;
16600;SDS011;34891;48.164;11.572;2022-11-04T15:19:13;1.38;;;0.60;;
16600;SDS011;34891;48.164;11.572;2022-11-04T15:24:20;2.83;;;1.13;;
16600;SDS011;34891;48.164;11.572;2022-11-04T15:29:23;2.47;;;0.88;;
16600;SDS011;34891;48.164;11.572;2022-11-04T15:34:27;1.08;;;0.28;;
16600;SDS011;34891;48.164;11.572;2022-11-04T15:39:32;1.85;;;0.90;;
16600;SDS011;34891;48.164;11.572;2022-11-04T15:44:36;0.65;;;0.55;;
16600;SDS011;34891;48.164;11.572;2022-11-04T15:49:39;1.08;;;0.70;;
16600;SDS011;34891;48.164;11.572;2022-11-04T15:54:44;3.65;;;1.08;;
16600;SDS011;34891;48.164;11.572;2022-11-04T15:59:48;2.75;;;1.00;;
16600;SDS011;34891;48.164;11.572;2022-11-04T16:05:04;0.90;;;0.45;;
16600;SDS011;34891;48.164;11.572;2022-11-04T16:10:24;5.63;;;1.67;;
16600;SDS011;34891;48.164;11.572;2022-11-04T16:15:29;4.43;;;0.45;;
16600;SDS011;34891;48.164;11.572;2022-11-04T16:25:37;2.47;;;0.93;;
16600;SDS011;34891;48.164;11.572;2022-11-04T16:30:39;2.40;;;1.05;;
16600;SDS011;34891;48.164;11.572;2022-11-04T16:35:56;3.22;;;0.88;;
16600;SDS011;34891;48.164;11.572;2022-11-04T16:41:00;3.17;;;1.40;;
16600;SDS011;34891;48.164;11.572;2022-11-04T16:46:04;1.88;;;1.10;;
16600;SDS011;34891;48.164;11.572;2022-11-04T16:51:08;1.15;;;0.93;;
16600;SDS011;34891;48.164;11.572;2022-11-04T16:56:14;3.00;;;1.25;;
16600;SDS011;34891;48.164;11.572;2022-11-04T17:01:23;2.33;;;1.48;;
16600;SDS011;34891;48.164;11.572;2022-11-04T17:06:25;1.15;;;0.63;;
16600;SDS011;34891;48.164;11.572;2022-11-04T17:11:31;2.42;;;1.10;;
16600;SDS011;34891;48.164;11.572;2022-11-04T17:21:36;4.00;;;1.20;;
16600;SDS011;34891;48.164;11.572;2022-11-04T17:26:40;2.55;;;1.33;;
16600;SDS011;34891;48.164;11.572;2022-11-04T17:31:43;0.30;;;0.30;;
16600;SDS011;34891;48.164;11.572;2022-11-04T17:36:46;5.18;;;2.63;;
16600;SDS011;34891;48.164;11.572;2022-11-04T17:41:50;3.13;;;1.70;;
16600;SDS011;34891;48.164;11.572;2022-11-04T17:47:10;4.55;;;2.00;;
16600;SDS011;34891;48.164;11.572;2022-11-04T17:52:13;3.80;;;1.73;;
16600;SDS011;34891;48.164;11.572;2022-11-04T17:57:17;3.20;;;2.00;;
16600;SDS011;34891;48.164;11.572;2022-11-04T18:02:19;7.97;;;3.10;;
16600;SDS011;34891;48.164;11.572;2022-11-04T18:07:22;12.40;;;7.63;;
16600;SDS011;34891;48.164;11.572;2022-11-04T18:12:26;10.85;;;4.30;;
16600;SDS011;34891;48.164;11.572;2022-11-04T18:17:38;6.43;;;2.50;;
16600;SDS011;34891;48.164;11.572;2022-11-04T18:22:41;6.50;;;3.10;;
16600;SDS011;34891;48.164;11.572;2022-11-04T18:27:45;5.65;;;2.63;;
16600;SDS011;34891;48.164;11.572;2022-11-04T18:32:49;4.43;;;2.08;;
16600;SDS011;34891;48.164;11.572;2022-11-04T18:37:52;5.63;;;2.33;;
16600;SDS011;34891;48.164;11.572;2022-11-04T18:42:57;4.45;;;2.30;;
16600;SDS011;34891;48.164;11.572;2022-11-04T18:48:05;3.35;;;1.70;;
16600;SDS011;34891;48.164;11.572;2022-11-04T18:53:08;5.72;;;1.85;;
16600;SDS011;34891;48.164;11.572;2022-11-04T18:58:12;8.13;;;2.53;;
16600;SDS011;34891;48.164;11.572;2022-11-04T19:03:15;4.57;;;2.08;;
16600;SDS011;34891;48.164;11.572;2022-11-04T19:08:18;4.97;;;2.20;;
16600;SDS011;34891;48.164;11.572;2022-11-04T19:13:22;8.98;;;2.00;;
16600;SDS011;34891;48.164;11.572;2022-11-04T19:18:25;6.50;;;2.63;;
16600;SDS011;34891;48.164;11.572;2022-11-04T19:23:28;4.38;;;2.03;;
16600;SDS011;34891;48.164;11.572;2022-11-04T19:28:32;8.63;;;3.17;;
16600;SDS011;34891;48.164;11.572;2022-11-04T19:33:49;9.88;;;3.97;;
16600;SDS011;34891;48.164;11.572;2022-11-04T19:38:52;2.25;;;1.35;;
16600;SDS011;34891;48.164;11.572;2022-11-04T19:43:57;10.63;;;2.90;;
16600;SDS011;34891;48.164;11.572;2022-11-04T19:49:00;31.65;;;7.30;;
16600;SDS011;34891;48.164;11.572;2022-11-04T19:54:03;6.07;;;3.15;;
16600;SDS011;34891;48.164;11.572;2022-11-04T19:59:07;6.63;;;2.58;;
16600;SDS011;34891;48.164;11.572;2022-11-04T20:04:10;7.97;;;3.92;;
16600;SDS011;34891;48.164;11.572;2022-11-04T20:09:13;3.53;;;1.70;;
16600;SDS011;34891;48.164;11.572;2022-11-04T20:14:17;5.45;;;2.35;;
16600;SDS011;34891;48.164;11.572;2022-11-04T20:19:20;5.28;;;1.67;;
16600;SDS011;34891;48.164;11.572;2022-11-04T20:24:24;2.75;;;1.17;;
16600;SDS011;34891;48.164;11.572;2022-11-04T20:29:28;8.43;;;3.47;;
16600;SDS011;34891;48.164;11.572;2022-11-04T20:34:30;1.10;;;0.45;;
16600;SDS011;34891;48.164;11.572;2022-11-04T20:39:38;7.10;;;3.28;;
16600;SDS011;34891;48.164;11.572;2022-11-04T20:44:43;3.10;;;1.23;;
16600;SDS011;34891;48.164;11.572;2022-11-04T20:49:46;8.32;;;3.35;;
16600;SDS011;34891;48.164;11.572;2022-11-04T20:54:49;5.18;;;2.55;;
16600;SDS011;34891;48.164;11.572;2022-11-04T20:59:53;10.30;;;2.95;;
16600;SDS011;34891;48.164;11.572;2022-11-04T21:04:56;9.38;;;3.40;;
16600;SDS011;34891;48.164;11.572;2022-11-04T21:09:58;5.05;;;2.63;;
16600;SDS011;34891;48.164;11.572;2022-11-04T21:15:03;8.27;;;2.97;;
16600;SDS011;34891;48.164;11.572;2022-11-04T21:25:28;8.23;;;2.42;;
16600;SDS011;34891;48.164;11.572;2022-11-04T21:30:33;7.00;;;1.70;;
16600;SDS011;34891;48.164;11.572;2022-11-04T21:35:36;2.20;;;1.23;;
16600;SDS011;34891;48.164;11.572;2022-11-04T21:40:39;6.03;;;2.75;;
16600;SDS011;34891;48.164;11.572;2022-11-04T21:45:44;4.47;;;1.77;;
16600;SDS011;34891;48.164;11.572;2022-11-04T21:50:46;13.98;;;5.22;;
16600;SDS011;34891;48.164;11.572;2022-11-04T21:55:49;21.48;;;8.30;;
16600;SDS011;34891;48.164;11.572;2022-11-04T22:00:54;19.15;;;8.52;;
16600;SDS011;34891;48.164;11.572;2022-11-04T22:05:58;9.38;;;3.67;;
16600;SDS011;34891;48.164;11.572;2022-11-04T22:11:05;5.25;;;2.75;;
16600;SDS011;34891;48.164;11.572;2022-11-04T22:16:10;5.82;;;2.67;;
16600;SDS011;34891;48.164;11.572;2022-11-04T22:21:14;3.47;;;1.42;;
16600;SDS011;34891;48.164;11.572;2022-11-04T22:26:19;5.28;;;1.23;;
16600;SDS011;34891;48.164;11.572;2022-11-04T22:31:24;2.03;;;1.20;;
16600;SDS011;34891;48.164;11.572;2022-11-04T22:36:28;3.42;;;1.35;;
16600;SDS011;34891;48.164;11.572;2022-11-04T22:41:31;1.03;;;0.90;;
16600;SDS011;34891;48.164;11.572;2022-11-04T22:46:36;1.27;;;1.10;;
16600;SDS011;34891;48.164;11.572;2022-11-04T22:51:38;1.88;;;0.93;;
16600;SDS011;34891;48.164;11.572;2022-11-04T22:56:41;2.60;;;1.25;;
16600;SDS011;34891;48.164;11.572;2022-11-04T23:01:45;4.65;;;1.98;;
16600;SDS011;34891;48.164;11.572;2022-11-04T23:11:50;1.20;;;0.90;;
16600;SDS011;34891;48.164;11.572;2022-11-04T23:17:14;2.50;;;1.50;;
16600;SDS011;34891;48.164;11.572;2022-11-04T23:22:34;3.33;;;1.55;;
16600;SDS011;34891;48.164;11.572;2022-11-04T23:27:55;6.18;;;1.70;;
16600;SDS011;34891;48.164;11.572;2022-11-04T23:33:17;0.95;;;0.65;;
16600;SDS011;34891;48.164;11.572;2022-11-04T23:38:40;3.03;;;1.35;;
16600;SDS011;34891;48.164;11.572;2022-11-04T23:43:50;1.83;;;1.25;;
16600;SDS011;34891;48.164;11.572;2022-11-04T23:48:54;3.50;;;1.33;;
16600;SDS011;34891;48.164;11.572;2022-11-04T23:54:22;3.03;;;1.20;;
16600;SDS011;34891;48.164;11.572;2022-11-04T23:59:42;2.50;;;1.08;;
